Weather History for Wheeling, WV

Change the Weather History Date:

Thursday, January 23, 2014

  Actual Average Record
Temperature  
Mean Temperature 7 °F 29 °F  
Max Temperature 11 °F 36 °F 62 °F (2012)
Min Temperature 2 °F 22 °F 2 °F (2014)
Degree Days  
Heating Degree Days 58 36  
Month to date heating degree days 876 828  
Since 1 July heating degree days 3014 2953  
Cooling Degree Days 0    
Month to date cooling degree days 0  
Year to date cooling degree days 0  
Moisture  
Dew Point 2 °F    
Average Humidity 75    
Maximum Humidity 86    
Minimum Humidity 63    
Precipitation  
Precipitation T in 0.06 in 1.28 in (1982)
Month to date precipitation 1.39 2.16  
Sea Level Pressure  
Sea Level Pressure 30.23 in    
Wind  
Wind Speed 11 mph (WSW)    
Max Wind Speed 22 mph    
Max Gust Speed 28 mph    
Visibility 4 miles    
Events Snow    
T = Trace of Precipitation, MM = Missing Value Source: NWS Daily Summary

Daily Weather History Graph

Daily Weather History Graph

Search for Another Location

Airport:

Trip Planner

Search our weather history database for the weather conditions in past years. The results will help you decide how hot, cold, wet, or windy it might be!

Date:

Astronomy

Jan. 23, 2014 Rise Set
Actual Time 7:38 AM EST 5:30 PM EST
Civil Twilight 7:09 AM EST 5:59 PM EST
Nautical Twilight 6:36 AM EST 6:32 PM EST
Astronomical Twilight 6:04 AM EST 7:05 PM EST
Moon 12:00 AM EST (1/23) 11:12 AM EST (1/23)
Length of Visible Light 10h 50m
Length of Day
9h 51m
Waning Gibbous, 55% of the Moon is Illuminated
Jan 23
Waning Gibbous
Jan 24
Last Quarter
Jan 30
New
Feb 6
First Quarter
Feb 14
Full

Hourly Weather History & Observations

Time (EST) Temp. Windchill Dew Point Humidity Pressure Visibility Wind Dir Wind Speed Gust Speed Precip Events Conditions
12:53 AM 9.0 °F -2.2 °F 3.0 °F 77% 30.05 in 10.0 mi SW 6.9 mph - N/A   Overcast
1:53 AM 9.0 °F -4.2 °F 3.9 °F 80% 30.06 in 4.0 mi SSW 9.2 mph - 0.00 in Snow Light Snow
2:53 AM 9.0 °F -2.2 °F 3.9 °F 80% 30.07 in 4.0 mi SW 6.9 mph - 0.00 in Snow Light Snow
3:04 AM 8.6 °F -4.7 °F 5.0 °F 85% 29.99 in 1.8 mi SW 9.2 mph - 0.00 in Snow Light Snow
3:15 AM 8.6 °F -1.3 °F 5.0 °F 85% 29.99 in 2.0 mi SW 5.8 mph - 0.00 in Snow Light Snow
3:53 AM 10.0 °F 1.8 °F 6.1 °F 84% 30.07 in 3.0 mi SW 4.6 mph - 0.00 in Snow Light Snow
4:00 AM 10.4 °F 0.8 °F 6.8 °F 85% 29.98 in 2.5 mi SW 5.8 mph - 0.00 in Snow Light Snow
4:10 AM 10.4 °F -1.5 °F 6.8 °F 85% 29.98 in 3.0 mi SSW 8.1 mph - 0.00 in Snow Light Snow
4:35 AM 10.4 °F -0.4 °F 6.8 °F 85% 29.99 in 2.0 mi SW 6.9 mph - 0.00 in Snow Light Snow
4:42 AM 10.4 °F -0.4 °F 6.8 °F 85% 29.99 in 2.0 mi SW 6.9 mph - 0.00 in Snow Light Snow
4:53 AM 10.0 °F 0.4 °F 6.1 °F 84% 30.07 in 2.5 mi SW 5.8 mph - 0.00 in Snow Light Snow
4:59 AM 10.4 °F -3.3 °F 6.8 °F 85% 29.99 in 3.0 mi SW 10.4 mph - 0.00 in Snow Light Snow
5:16 AM 10.4 °F -3.3 °F 6.8 °F 85% 29.99 in 1.8 mi SW 10.4 mph - 0.00 in Snow Light Snow
5:23 AM 10.4 °F -1.5 °F 6.8 °F 85% 30.00 in 1.5 mi SW 8.1 mph - 0.00 in Snow Light Snow
5:53 AM 10.9 °F 1.4 °F 7.0 °F 84% 30.09 in 1.2 mi WSW 5.8 mph - 0.00 in Snow Light Snow
6:00 AM 10.4 °F -0.4 °F 6.8 °F 85% 30.01 in 3.0 mi WSW 6.9 mph - 0.00 in Snow Light Snow
6:21 AM 10.4 °F -2.4 °F 6.8 °F 85% 30.02 in 1.8 mi SW 9.2 mph - 0.00 in Snow Light Snow
6:45 AM 10.4 °F -2.4 °F 6.8 °F 85% 30.04 in 3.0 mi West 9.2 mph - 0.00 in Snow Light Snow
6:53 AM 10.9 °F -2.6 °F 7.0 °F 84% 30.12 in 5.0 mi West 10.4 mph 18.4 mph 0.00 in Snow Light Snow
7:50 AM 10.4 °F -3.3 °F 6.8 °F 85% 30.08 in 1.8 mi West 10.4 mph - 0.00 in Snow Light Snow
7:53 AM 10.0 °F -3.7 °F 6.1 °F 84% 30.16 in 1.5 mi West 10.4 mph - 0.00 in Snow Light Snow
8:03 AM 10.4 °F -5.4 °F 5.0 °F 79% 30.08 in 3.0 mi West 13.8 mph 20.7 mph 0.00 in Snow Light Snow
8:33 AM 10.4 °F -3.3 °F 3.2 °F 73% 30.10 in 4.0 mi West 10.4 mph 19.6 mph 0.00 in Snow Light Snow
8:46 AM 10.4 °F -6.0 °F 3.2 °F 73% 30.11 in 1.8 mi West 15.0 mph 24.2 mph 0.00 in Snow Light Snow
8:53 AM 10.0 °F -5.9 °F 3.9 °F 76% 30.20 in 2.0 mi West 13.8 mph 21.9 mph 0.00 in Snow Light Snow
9:00 AM 10.4 °F -4.8 °F 3.2 °F 73% 30.12 in 3.0 mi West 12.7 mph 21.9 mph 0.00 in Snow Light Snow
9:07 AM 10.4 °F -3.3 °F 3.2 °F 73% 30.12 in 2.5 mi West 10.4 mph - 0.00 in Snow Light Snow
9:14 AM 10.4 °F -1.5 °F 5.0 °F 79% 30.13 in 0.8 mi West 8.1 mph - 0.00 in Snow Light Snow
9:26 AM 10.4 °F -7.2 °F 1.4 °F 67% 30.14 in 2.0 mi West 17.3 mph 21.9 mph 0.00 in Snow Light Snow
9:33 AM 10.4 °F -7.7 °F 1.4 °F 67% 30.14 in 9.0 mi West 18.4 mph 25.3 mph 0.00 in   Overcast
9:53 AM 10.0 °F -5.9 °F 1.9 °F 70% 30.25 in 10.0 mi West 13.8 mph - 0.00 in   Overcast
10:25 AM 10.4 °F -6.6 °F -0.4 °F 62% 30.18 in 10.0 mi West 16.1 mph 25.3 mph N/A   Overcast
10:42 AM 10.4 °F -6.6 °F 1.4 °F 67% 30.20 in 1.5 mi West 16.1 mph 21.9 mph 0.00 in Snow Light Snow
10:45 AM 10.4 °F -4.1 °F 3.2 °F 73% 30.20 in 0.8 mi West 11.5 mph 21.9 mph 0.00 in Snow Light Snow
10:53 AM 9.0 °F -8.5 °F 3.0 °F 77% 30.29 in 1.0 mi West 16.1 mph 20.7 mph 0.00 in Snow Light Snow
10:59 AM 10.4 °F -6.6 °F 1.4 °F 67% 30.21 in 3.0 mi West 16.1 mph 21.9 mph 0.00 in Snow Light Snow
11:09 AM 10.4 °F -7.7 °F -0.4 °F 62% 30.21 in 10.0 mi West 18.4 mph 26.5 mph 0.00 in   Overcast
11:53 AM 10.0 °F -5.9 °F 1.0 °F 67% 30.31 in 10.0 mi West 13.8 mph 23.0 mph 0.00 in   Overcast
12:08 PM 10.4 °F -6.6 °F 1.4 °F 67% 30.22 in 5.0 mi West 16.1 mph 24.2 mph N/A   Haze
12:16 PM 8.6 °F -7.7 °F -0.4 °F 67% 30.22 in 6.0 mi West 13.8 mph 21.9 mph N/A   Haze
12:25 PM 10.4 °F -4.8 °F 1.4 °F 67% 30.22 in 2.5 mi West 12.7 mph 19.6 mph 0.00 in Snow Light Snow
12:33 PM 10.4 °F -6.0 °F 1.4 °F 67% 30.22 in 3.0 mi West 15.0 mph 23.0 mph 0.00 in Snow Light Snow
12:53 PM 10.0 °F -6.5 °F -0.0 °F 64% 30.31 in 8.0 mi West 15.0 mph 23.0 mph 0.00 in   Overcast
1:53 PM 10.0 °F -8.6 °F -0.0 °F 64% 30.33 in 6.0 mi West 19.6 mph 25.3 mph N/A   Haze
2:22 PM 10.4 °F -7.2 °F 1.4 °F 67% 30.26 in 1.8 mi West 17.3 mph 25.3 mph 0.00 in Snow Light Snow
2:39 PM 8.6 °F -8.3 °F 1.4 °F 73% 30.26 in 2.5 mi West 15.0 mph 25.3 mph 0.00 in Snow Light Snow
2:53 PM 9.0 °F -7.3 °F 3.0 °F 77% 30.35 in 1.8 mi WSW 13.8 mph 23.0 mph 0.00 in Snow Light Snow
3:08 PM 8.6 °F -8.3 °F 1.4 °F 73% 30.28 in 3.0 mi WSW 15.0 mph 23.0 mph 0.00 in Snow Light Snow
3:44 PM 8.6 °F -10.0 °F 1.4 °F 73% 30.29 in 4.0 mi West 18.4 mph 24.2 mph 0.00 in Snow Light Snow
3:53 PM 9.0 °F -5.9 °F 1.0 °F 70% 30.39 in 6.0 mi West 11.5 mph 21.9 mph 0.00 in   Haze
4:08 PM 8.6 °F -7.7 °F 1.4 °F 73% 30.31 in 4.0 mi West 13.8 mph 24.2 mph 0.00 in Snow Light Snow
4:23 PM 8.6 °F -8.9 °F -0.4 °F 67% 30.31 in 6.0 mi West 16.1 mph 23.0 mph 0.00 in   Haze
4:48 PM 8.6 °F -7.7 °F 1.4 °F 73% 30.33 in 2.5 mi WSW 13.8 mph 21.9 mph 0.00 in Snow Light Snow
4:53 PM 8.1 °F -8.4 °F 1.0 °F 73% 30.42 in 3.0 mi WSW 13.8 mph - 0.00 in Snow Light Snow
5:00 PM 8.6 °F -5.5 °F 1.4 °F 73% 30.33 in 2.0 mi WSW 10.4 mph - 0.00 in Snow Light Snow
5:16 PM 8.6 °F -5.5 °F 3.2 °F 79% 30.34 in 1.2 mi West 10.4 mph - 0.00 in Snow Light Snow
5:30 PM 8.6 °F -7.7 °F 3.2 °F 79% 30.35 in 0.8 mi WSW 13.8 mph 19.6 mph 0.00 in Snow Light Snow
5:39 PM 8.6 °F -6.3 °F 3.2 °F 79% 30.35 in 1.0 mi WSW 11.5 mph - 0.00 in Snow Light Snow
5:53 PM 7.0 °F -6.6 °F 1.9 °F 80% 30.45 in 2.5 mi WSW 9.2 mph - 0.00 in Snow Light Snow
6:06 PM 6.8 °F -9.3 °F 1.4 °F 79% 30.37 in 3.0 mi West 12.7 mph 19.6 mph 0.00 in Snow Light Snow
6:46 PM 6.8 °F -7.8 °F -0.4 °F 72% 30.39 in 5.0 mi West 10.4 mph - 0.00 in   Haze
6:53 PM 6.1 °F -10.2 °F -0.0 °F 76% 30.48 in 5.0 mi WSW 12.7 mph - 0.00 in   Haze
7:09 PM 6.8 °F -7.8 °F 1.4 °F 79% 30.39 in 1.8 mi West 10.4 mph - 0.00 in Snow Light Snow
7:18 PM 6.8 °F -7.8 °F 1.4 °F 79% 30.40 in 2.0 mi West 10.4 mph 17.3 mph 0.00 in Snow Light Snow
7:27 PM 6.8 °F -6.9 °F -0.4 °F 72% 30.40 in 4.0 mi WSW 9.2 mph - 0.00 in Snow Light Snow
7:37 PM 6.8 °F -8.6 °F -0.4 °F 72% 30.40 in 5.0 mi WSW 11.5 mph - 0.00 in Snow Light Snow
7:53 PM 5.0 °F -10.0 °F -0.0 °F 80% 30.50 in 4.0 mi West 10.4 mph - 0.00 in Snow Light Snow
8:10 PM 5.0 °F -10.8 °F -0.4 °F 78% 30.41 in 8.0 mi West 11.5 mph - 0.00 in   Overcast
8:28 PM 5.0 °F -10.0 °F -0.4 °F 78% 30.41 in 2.5 mi WSW 10.4 mph - 0.00 in Snow Light Snow
8:36 PM 3.2 °F -11.3 °F -0.4 °F 85% 30.41 in 4.0 mi WSW 9.2 mph - 0.00 in   Overcast
8:53 PM 3.9 °F -12.2 °F -0.9 °F 80% 30.51 in 8.0 mi WSW 11.5 mph - 0.00 in   Overcast
9:53 PM 3.0 °F -11.5 °F -0.9 °F 84% 30.52 in 7.0 mi WSW 9.2 mph - 0.00 in   Overcast
10:53 PM 3.0 °F -13.3 °F -2.9 °F 76% 30.53 in 10.0 mi West 11.5 mph 20.7 mph N/A   Scattered Clouds
11:25 PM 3.2 °F -12.2 °F -2.2 °F 78% 30.44 in 10.0 mi West 10.4 mph - N/A   Overcast
11:36 PM 1.4 °F -13.5 °F -2.2 °F 85% 30.44 in 8.0 mi WSW 9.2 mph - N/A   Overcast
11:53 PM 1.9 °F -11.8 °F -2.9 °F 80% 30.53 in 7.0 mi West 8.1 mph - N/A   Overcast